createdAt,value
2023-04-22T00:02:16.953Z,32.42
2023-04-22T00:04:46.483Z,34.55
2023-04-22T00:07:14.692Z,39.00
2023-04-22T00:09:41.922Z,36.45
2023-04-22T00:12:09.292Z,32.65
2023-04-22T00:14:35.978Z,30.50
2023-04-22T00:17:02.842Z,30.35
2023-04-22T00:19:29.890Z,28.17
2023-04-22T00:21:56.532Z,24.98
2023-04-22T00:24:23.118Z,31.42
2023-04-22T00:26:49.777Z,33.00
2023-04-22T00:29:16.406Z,32.95
2023-04-22T00:31:43.040Z,26.45
2023-04-22T00:34:09.810Z,28.05
2023-04-22T00:36:36.484Z,26.40
2023-04-22T00:39:03.247Z,31.80
2023-04-22T00:41:31.218Z,31.38
2023-04-22T00:43:59.811Z,25.83
2023-04-22T00:46:27.168Z,26.02
2023-04-22T00:48:54.208Z,26.52
2023-04-22T00:51:20.882Z,28.27
2023-04-22T00:53:47.716Z,29.25
2023-04-22T00:56:14.474Z,29.63
2023-04-22T00:58:41.358Z,32.55
2023-04-22T01:01:08.084Z,32.83
2023-04-22T01:03:38.752Z,33.83
2023-04-22T01:06:05.675Z,31.05
2023-04-22T01:08:33.117Z,34.85
2023-04-22T01:11:00.152Z,30.83
2023-04-22T01:13:26.946Z,54.35
2023-04-22T01:15:54.768Z,34.20
2023-04-22T01:18:21.965Z,33.60
2023-04-22T01:20:48.965Z,32.17
2023-04-22T01:23:22.301Z,31.13
2023-04-22T01:25:49.487Z,28.83
2023-04-22T01:28:17.020Z,32.88
2023-04-22T01:30:44.528Z,33.55
2023-04-22T01:33:11.997Z,43.95
2023-04-22T01:35:38.985Z,31.73
2023-04-22T01:38:10.041Z,32.17
2023-04-22T01:40:38.245Z,29.95
2023-04-22T01:43:05.255Z,38.80
2023-04-22T01:45:31.953Z,28.52
2023-04-22T01:47:58.657Z,37.85
2023-04-22T01:50:25.436Z,26.95
2023-04-22T01:52:52.247Z,32.28
2023-04-22T01:55:18.905Z,34.75
2023-04-22T01:57:45.639Z,32.17
2023-04-22T02:00:12.703Z,38.05
2023-04-22T02:02:39.569Z,28.95
2023-04-22T02:05:10.157Z,28.02
2023-04-22T02:07:38.132Z,25.45
2023-04-22T02:10:06.060Z,26.05
2023-04-22T02:12:32.716Z,27.55
2023-04-22T02:14:59.400Z,23.80
2023-04-22T02:17:26.411Z,29.70
2023-04-22T02:19:53.293Z,36.25
2023-04-22T02:22:20.093Z,36.40
2023-04-22T02:24:46.901Z,41.20
2023-04-22T02:27:13.534Z,37.80
2023-04-22T02:29:40.457Z,37.85
2023-04-22T02:32:07.544Z,43.33
2023-04-22T02:34:34.170Z,44.25
2023-04-22T02:37:00.990Z,42.47
2023-04-22T02:39:27.695Z,35.00
2023-04-22T02:41:54.636Z,35.55
2023-04-22T02:44:21.219Z,38.58
2023-04-22T02:46:47.925Z,36.75
2023-04-22T02:49:14.600Z,41.58
2023-04-22T02:51:41.235Z,36.97
2023-04-22T02:54:07.894Z,43.13
2023-04-22T02:56:34.562Z,44.45
2023-04-22T02:59:01.184Z,43.10
2023-04-22T03:01:27.903Z,47.08
2023-04-22T03:03:54.850Z,40.83
2023-04-22T03:06:21.740Z,41.53
2023-04-22T03:08:48.316Z,43.65
2023-04-22T03:11:14.964Z,42.63
2023-04-22T03:13:41.664Z,39.13
2023-04-22T03:16:09.325Z,43.25
2023-04-22T03:18:36.026Z,43.55
2023-04-22T03:21:02.889Z,44.70
2023-04-22T03:23:29.587Z,42.30
2023-04-22T03:25:56.210Z,48.72
2023-04-22T03:28:22.848Z,46.75
2023-04-22T03:30:49.518Z,51.65
2023-04-22T03:33:16.731Z,46.10
2023-04-22T03:35:43.424Z,46.85
2023-04-22T03:38:10.310Z,43.50
2023-04-22T03:40:36.964Z,47.67
2023-04-22T03:43:03.709Z,41.95
2023-04-22T03:45:30.461Z,48.85
2023-04-22T03:47:57.181Z,50.38
2023-04-22T03:50:23.943Z,53.17
2023-04-22T03:52:50.958Z,44.30
2023-04-22T03:55:17.736Z,45.00
2023-04-22T03:57:44.400Z,49.22
2023-04-22T04:00:11.473Z,48.42
2023-04-22T04:02:38.199Z,54.15
2023-04-22T04:05:05.564Z,55.65
2023-04-22T04:07:32.299Z,53.92
2023-04-22T04:09:58.906Z,52.97
2023-04-22T04:12:25.671Z,47.08
2023-04-22T04:14:52.331Z,58.08
2023-04-22T04:17:19.041Z,54.08
2023-04-22T04:19:45.796Z,61.83
2023-04-22T04:22:12.433Z,56.40
2023-04-22T04:24:42.083Z,59.75
2023-04-22T04:27:09.073Z,53.28
2023-04-22T04:29:36.893Z,57.42
2023-04-22T04:32:04.925Z,60.13
2023-04-22T04:34:34.669Z,58.55
2023-04-22T04:37:01.408Z,57.53
2023-04-22T04:39:29.210Z,63.17
2023-04-22T04:41:58.583Z,64.03
2023-04-22T04:44:28.118Z,64.57
2023-04-22T04:46:54.954Z,60.00
2023-04-22T04:49:21.972Z,60.45
2023-04-22T04:51:49.098Z,52.20
2023-04-22T04:54:16.161Z,50.65
2023-04-22T04:56:43.179Z,54.97
2023-04-22T04:59:09.896Z,61.85
2023-04-22T05:01:36.574Z,58.40
2023-04-22T05:04:03.544Z,53.55
2023-04-22T05:06:31.435Z,54.95
2023-04-22T05:08:58.336Z,57.17
2023-04-22T05:11:25.186Z,52.70
2023-04-22T05:13:51.817Z,51.67
2023-04-22T05:16:18.461Z,48.88
2023-04-22T05:18:45.362Z,47.35
2023-04-22T05:21:11.968Z,51.97
2023-04-22T05:23:39.472Z,53.20
2023-04-22T05:26:06.186Z,55.75
2023-04-22T05:28:32.901Z,50.70
2023-04-22T05:30:59.560Z,53.13
2023-04-22T05:33:26.214Z,57.95
2023-04-22T05:35:53.616Z,58.58
2023-04-22T05:38:20.421Z,54.60
2023-04-22T05:40:47.157Z,60.17
2023-04-22T05:43:14.067Z,60.17
2023-04-22T05:45:40.858Z,59.95
2023-04-22T05:48:07.767Z,63.75
2023-04-22T05:50:34.593Z,58.15
2023-04-22T05:53:01.193Z,59.17
2023-04-22T05:55:27.941Z,55.95
2023-04-22T05:57:54.634Z,62.33
2023-04-22T06:00:21.303Z,65.63
2023-04-22T06:02:48.066Z,65.05
2023-04-22T06:05:14.968Z,60.38
2023-04-22T06:07:41.692Z,65.60
2023-04-22T06:10:09.143Z,70.57
2023-04-22T06:12:36.169Z,82.85
2023-04-22T06:15:03.149Z,75.15
2023-04-22T06:17:29.802Z,62.72
2023-04-22T06:19:56.529Z,67.57
2023-04-22T06:22:23.259Z,68.15
2023-04-22T06:24:49.976Z,64.93
2023-04-22T06:27:16.596Z,60.15
2023-04-22T06:29:43.337Z,62.47
2023-04-22T06:32:09.924Z,71.70
2023-04-22T06:34:38.590Z,57.40
2023-04-22T06:37:06.197Z,59.40
2023-04-22T06:39:32.847Z,70.28
2023-04-22T06:41:59.605Z,63.25
2023-04-22T06:44:26.376Z,53.10
2023-04-22T06:46:53.777Z,59.95
2023-04-22T06:49:21.859Z,48.33
2023-04-22T06:51:48.562Z,67.25
2023-04-22T06:54:15.186Z,71.05
2023-04-22T06:56:42.007Z,70.47
2023-04-22T06:59:08.795Z,67.00
2023-04-22T07:01:35.487Z,61.67
2023-04-22T07:04:02.231Z,52.25
2023-04-22T07:06:29.139Z,76.00
2023-04-22T07:08:55.901Z,74.10
2023-04-22T07:11:22.541Z,61.60
2023-04-22T07:13:49.176Z,69.78
2023-04-22T07:16:15.869Z,61.58
2023-04-22T07:18:42.498Z,73.45
2023-04-22T07:21:09.134Z,74.78
2023-04-22T07:23:35.890Z,73.93
2023-04-22T07:26:02.862Z,64.25
2023-04-22T07:28:29.683Z,64.40
2023-04-22T07:30:56.376Z,64.93
2023-04-22T07:33:23.177Z,55.88
2023-04-22T07:35:49.946Z,59.58
2023-04-22T07:38:16.746Z,48.78
2023-04-22T07:40:43.814Z,62.25
2023-04-22T07:43:10.533Z,68.85
2023-04-22T07:45:37.313Z,46.45
2023-04-22T07:48:04.848Z,61.38
2023-04-22T07:50:31.648Z,58.92
2023-04-22T07:52:58.417Z,49.47
2023-04-22T07:55:25.057Z,57.58
2023-04-22T07:57:51.764Z,44.95
2023-04-22T08:00:18.518Z,46.42
2023-04-22T08:02:46.825Z,49.30
2023-04-22T08:05:13.634Z,42.40
2023-04-22T08:07:40.457Z,45.75
2023-04-22T08:10:07.723Z,42.35
2023-04-22T08:12:35.083Z,39.35
2023-04-22T08:15:01.797Z,40.88
2023-04-22T08:17:28.560Z,35.63
2023-04-22T08:19:55.339Z,34.00
2023-04-22T08:22:23.811Z,31.73
2023-04-22T08:24:50.785Z,31.58
2023-04-22T08:27:19.204Z,35.72
2023-04-22T08:29:45.879Z,23.30
2023-04-22T08:32:12.574Z,30.92
2023-04-22T08:34:39.460Z,30.60
2023-04-22T08:37:06.143Z,27.02
2023-04-22T08:39:32.862Z,23.63
2023-04-22T08:41:59.713Z,30.10
2023-04-22T08:44:27.293Z,29.50
2023-04-22T08:46:55.858Z,25.88
2023-04-22T08:49:24.425Z,28.48
2023-04-22T08:51:51.209Z,19.70
2023-04-22T08:54:18.197Z,21.60
2023-04-22T08:56:45.800Z,21.27
2023-04-22T08:59:13.471Z,23.27
2023-04-22T09:01:41.195Z,19.52
2023-04-22T09:04:10.590Z,18.73
2023-04-22T09:06:38.806Z,18.27
2023-04-22T09:09:05.665Z,21.95
2023-04-22T09:11:33.645Z,18.40
2023-04-22T09:14:00.310Z,18.90
2023-04-22T09:16:26.981Z,10.20
2023-04-22T09:18:53.672Z,17.15
2023-04-22T09:21:20.348Z,16.67
2023-04-22T09:23:53.717Z,16.38
2023-04-22T09:26:23.419Z,16.48
2023-04-22T09:28:51.065Z,17.40
2023-04-22T09:31:18.321Z,15.75
2023-04-22T09:33:53.778Z,12.57
2023-04-22T09:36:27.602Z,13.25
2023-04-22T09:38:56.281Z,15.70
2023-04-22T09:41:35.376Z,15.25
2023-04-22T09:44:03.959Z,17.80
2023-04-22T09:46:31.781Z,14.02
2023-04-22T09:48:59.738Z,12.18
2023-04-22T09:51:30.328Z,11.65
2023-04-22T09:53:59.229Z,17.00
2023-04-22T09:56:50.809Z,16.63
2023-04-22T09:59:23.007Z,17.38
2023-04-22T10:01:53.212Z,16.17
2023-04-22T10:04:25.364Z,13.57
2023-04-22T10:06:53.114Z,13.13
2023-04-22T10:09:21.719Z,13.38
2023-04-22T10:11:50.831Z,10.77
2023-04-22T10:14:17.590Z,16.30
2023-04-22T10:16:46.990Z,14.52
2023-04-22T10:19:24.020Z,14.70
2023-04-22T10:21:55.651Z,11.70
2023-04-22T10:24:25.034Z,12.90
2023-04-22T10:26:59.701Z,14.30
2023-04-22T10:29:27.742Z,20.42
2023-04-22T10:32:07.939Z,16.90
2023-04-22T10:34:38.890Z,14.95
2023-04-22T10:37:09.040Z,17.55
2023-04-22T10:39:35.755Z,17.77
2023-04-22T10:42:10.945Z,17.52
2023-04-22T10:44:53.855Z,14.73
2023-04-22T10:47:29.868Z,16.60
2023-04-22T10:50:24.639Z,14.00
2023-04-22T10:53:18.616Z,13.00
2023-04-22T10:55:52.988Z,18.35
2023-04-22T10:58:20.675Z,16.80
2023-04-22T11:00:54.268Z,14.32
2023-04-22T11:03:29.617Z,16.70
2023-04-22T11:06:22.089Z,23.08
2023-04-22T11:08:50.233Z,18.65
2023-04-22T11:11:18.611Z,19.25
2023-04-22T11:13:47.396Z,16.13
2023-04-22T11:16:14.257Z,16.00
2023-04-22T11:18:41.103Z,7.53
2023-04-22T11:21:08.743Z,17.48
2023-04-22T11:23:36.633Z,15.82
2023-04-22T11:26:05.726Z,19.17
2023-04-22T11:28:33.016Z,19.15
2023-04-22T11:31:09.891Z,19.63
2023-04-22T11:33:39.105Z,17.17
2023-04-22T11:36:10.725Z,21.00
2023-04-22T11:38:37.516Z,17.65
2023-04-22T11:41:05.084Z,18.38
2023-04-22T11:43:31.716Z,15.68
2023-04-22T11:45:58.571Z,16.70
2023-04-22T11:48:25.250Z,19.30
2023-04-22T11:51:11.673Z,16.30
2023-04-22T11:53:40.121Z,17.30
2023-04-22T11:56:06.910Z,19.60
2023-04-22T11:58:33.562Z,18.98
2023-04-22T12:01:00.699Z,17.48
2023-04-22T12:03:31.139Z,16.50
2023-04-22T12:06:03.130Z,17.92
2023-04-22T12:08:34.108Z,19.85
2023-04-22T12:11:04.323Z,26.52
2023-04-22T12:13:38.282Z,23.02
2023-04-22T12:16:14.192Z,21.37
2023-04-22T12:19:03.457Z,24.17
2023-04-22T12:21:32.197Z,28.80
2023-04-22T12:24:01.059Z,23.70
2023-04-22T12:26:28.233Z,23.63
2023-04-22T12:28:57.752Z,24.45
2023-04-22T12:31:24.879Z,24.13
2023-04-22T12:33:52.220Z,29.13
2023-04-22T12:36:23.530Z,27.88
2023-04-22T12:38:51.194Z,24.17
2023-04-22T12:41:17.970Z,29.10
2023-04-22T12:43:44.829Z,17.77
2023-04-22T12:46:11.555Z,24.45
2023-04-22T12:48:38.422Z,30.50
2023-04-22T12:51:06.578Z,26.08
2023-04-22T12:53:33.483Z,30.38
2023-04-22T12:56:00.255Z,24.38
2023-04-22T12:58:26.989Z,24.45
2023-04-22T13:00:53.686Z,25.88
2023-04-22T13:03:20.779Z,24.70
2023-04-22T13:05:47.857Z,27.17
2023-04-22T13:08:14.802Z,23.85
2023-04-22T13:10:41.563Z,18.92
2023-04-22T13:15:39.012Z,23.05
2023-04-22T13:18:06.122Z,22.33
2023-04-22T13:20:32.989Z,26.02
2023-04-22T13:22:59.694Z,24.20
2023-04-22T13:25:26.437Z,23.60
2023-04-22T13:27:53.125Z,24.48
2023-04-22T13:30:20.087Z,23.80
2023-04-22T13:32:46.993Z,20.92
2023-04-22T13:35:13.758Z,26.80
2023-04-22T13:37:40.498Z,26.50
2023-04-22T13:40:08.286Z,23.63
2023-04-22T13:42:35.270Z,26.10
2023-04-22T13:45:01.915Z,25.20
2023-04-22T13:47:28.621Z,27.83
2023-04-22T13:49:55.397Z,23.40
2023-04-22T13:52:22.130Z,24.98
2023-04-22T13:54:48.843Z,25.70
2023-04-22T13:57:15.545Z,25.70
2023-04-22T13:59:42.471Z,31.48
2023-04-22T14:02:09.518Z,28.33
2023-04-22T14:04:36.418Z,26.05
2023-04-22T14:07:03.903Z,24.40
2023-04-22T14:09:30.703Z,26.05
2023-04-22T14:11:57.467Z,23.45
2023-04-22T14:14:24.217Z,25.92
2023-04-22T14:16:51.793Z,24.17
2023-04-22T14:19:18.694Z,28.13
2023-04-22T14:21:45.683Z,25.98
2023-04-22T14:24:12.501Z,25.13
2023-04-22T14:26:39.268Z,24.85
2023-04-22T14:29:06.009Z,36.83
2023-04-22T14:31:32.657Z,32.15
2023-04-22T14:33:59.322Z,32.25
2023-04-22T14:36:26.800Z,31.50
2023-04-22T14:38:53.480Z,34.58
2023-04-22T14:41:21.329Z,31.35
2023-04-22T14:43:48.031Z,30.80
2023-04-22T14:46:14.762Z,33.63
2023-04-22T14:48:41.550Z,26.63
2023-04-22T14:51:08.259Z,32.03
2023-04-22T14:53:34.950Z,36.80
2023-04-22T14:56:01.607Z,35.47
2023-04-22T14:58:31.432Z,31.13
2023-04-22T15:01:01.373Z,27.00
2023-04-22T15:03:28.199Z,20.77
2023-04-22T15:05:55.617Z,20.27
2023-04-22T15:08:25.087Z,21.05
2023-04-22T15:10:51.747Z,17.75
2023-04-22T15:13:19.516Z,22.23
2023-04-22T15:15:46.733Z,20.50
2023-04-22T15:18:13.516Z,22.10
2023-04-22T15:20:40.488Z,21.73
2023-04-22T15:23:07.098Z,20.15
2023-04-22T15:25:33.821Z,21.25
2023-04-22T15:28:00.592Z,17.55
2023-04-22T15:30:27.320Z,20.55
2023-04-22T15:32:54.042Z,15.32
2023-04-22T15:35:24.517Z,21.38
2023-04-22T15:37:52.534Z,19.58
2023-04-22T15:40:19.286Z,18.80
2023-04-22T15:42:45.929Z,17.50
2023-04-22T15:45:12.597Z,16.65
2023-04-22T15:47:41.140Z,20.65
2023-04-22T15:50:09.661Z,21.00
2023-04-22T15:52:38.011Z,21.65
2023-04-22T15:55:07.451Z,22.05
2023-04-22T15:57:35.243Z,22.77
2023-04-22T16:00:12.025Z,20.15
2023-04-22T16:02:40.595Z,23.45
2023-04-22T16:05:08.252Z,22.40
2023-04-22T16:07:35.226Z,25.40
2023-04-22T16:10:02.300Z,22.63
2023-04-22T16:12:29.597Z,23.88
2023-04-22T16:14:56.808Z,23.80
2023-04-22T16:17:23.698Z,30.30
2023-04-22T16:19:50.494Z,34.65
2023-04-22T16:22:17.089Z,21.20
2023-04-22T16:24:44.437Z,36.45
2023-04-22T16:27:16.133Z,31.50
2023-04-22T16:29:43.359Z,38.97
2023-04-22T16:32:10.440Z,36.22
2023-04-22T16:34:38.060Z,36.88
2023-04-22T16:37:04.862Z,36.17
2023-04-22T16:39:31.558Z,34.38
2023-04-22T16:41:59.110Z,41.03
2023-04-22T16:44:25.982Z,41.70
2023-04-22T16:46:52.730Z,43.55
2023-04-22T16:49:19.643Z,39.65
2023-04-22T16:51:46.470Z,44.38
2023-04-22T16:54:13.210Z,37.05
2023-04-22T16:56:39.968Z,34.92
2023-04-22T16:59:06.653Z,44.28
2023-04-22T17:01:33.518Z,41.08
2023-04-22T17:04:00.905Z,26.42
2023-04-22T17:06:28.310Z,48.85
2023-04-22T17:08:55.068Z,40.55
2023-04-22T17:11:22.908Z,35.17
2023-04-22T17:13:49.691Z,49.50
2023-04-22T17:16:16.371Z,54.85
2023-04-22T17:18:43.236Z,38.05
2023-04-22T17:21:10.121Z,33.80
2023-04-22T17:23:36.826Z,50.10
2023-04-22T17:26:03.431Z,46.45
2023-04-22T17:28:30.251Z,62.72
2023-04-22T17:30:56.999Z,53.38
2023-04-22T17:33:23.648Z,55.15
2023-04-22T17:35:50.391Z,62.70
2023-04-22T17:38:17.079Z,53.70
2023-04-22T17:40:44.753Z,47.22
2023-04-22T17:43:11.444Z,59.13
2023-04-22T17:45:38.072Z,35.47
2023-04-22T17:48:04.727Z,59.72
2023-04-22T17:50:31.412Z,45.72
2023-04-22T17:52:58.151Z,52.10
2023-04-22T17:55:25.115Z,63.65
2023-04-22T17:57:51.987Z,23.60
2023-04-22T18:00:18.880Z,50.28
2023-04-22T18:02:46.142Z,49.05
2023-04-22T18:05:13.012Z,55.97
2023-04-22T18:07:40.281Z,47.38
2023-04-22T18:10:07.714Z,46.63
2023-04-22T18:12:34.869Z,55.80
2023-04-22T18:15:02.004Z,51.83
2023-04-22T18:17:29.097Z,52.63
2023-04-22T18:20:09.859Z,45.63
2023-04-22T18:25:08.554Z,42.65
2023-04-22T18:27:35.640Z,41.47
2023-04-22T18:30:02.720Z,44.70
2023-04-22T18:32:29.928Z,39.38
2023-04-22T18:34:57.002Z,41.20
2023-04-22T18:37:24.700Z,40.20
2023-04-22T18:39:51.798Z,39.38
2023-04-22T18:42:19.018Z,37.55
2023-04-22T18:44:46.067Z,37.92
2023-04-22T18:47:13.188Z,35.75
2023-04-22T18:49:40.225Z,35.33
2023-04-22T18:52:07.292Z,35.22
2023-04-22T18:54:34.380Z,39.28
2023-04-22T18:57:02.261Z,34.47
2023-04-22T18:59:29.367Z,36.75
2023-04-22T19:01:56.523Z,40.58
2023-04-22T19:04:23.619Z,39.95
2023-04-22T19:06:50.802Z,45.10
2023-04-22T19:09:17.952Z,40.90
2023-04-22T19:11:45.100Z,41.80
2023-04-22T19:14:13.692Z,42.42
2023-04-22T19:16:41.023Z,47.30
2023-04-22T19:19:08.110Z,41.72
2023-04-22T19:21:35.336Z,45.17
2023-04-22T19:24:02.463Z,42.40
2023-04-22T19:26:29.670Z,46.05
2023-04-22T19:28:56.777Z,51.72
2023-04-22T19:31:24.053Z,56.92
2023-04-22T19:33:51.360Z,55.15
2023-04-22T19:36:18.577Z,58.22
2023-04-22T19:38:45.814Z,63.35
2023-04-22T19:41:13.504Z,52.55
2023-04-22T19:43:40.765Z,53.30
2023-04-22T19:46:08.190Z,61.33
2023-04-22T19:48:36.223Z,68.70
2023-04-22T19:51:03.474Z,70.00
2023-04-22T19:53:31.561Z,60.25
2023-04-22T19:55:58.610Z,64.75
2023-04-22T19:58:25.765Z,62.55
2023-04-22T20:00:52.990Z,59.00
2023-04-22T20:03:20.130Z,60.13
2023-04-22T20:05:49.035Z,65.18
2023-04-22T20:08:19.428Z,66.15
2023-04-22T20:10:49.168Z,64.80
2023-04-22T20:13:16.487Z,67.88
2023-04-22T20:15:43.347Z,62.40
2023-04-22T20:18:10.653Z,57.25
2023-04-22T20:20:38.628Z,60.45
2023-04-22T20:23:10.286Z,50.70
2023-04-22T20:25:39.732Z,60.63
2023-04-22T20:28:07.275Z,52.88
2023-04-22T20:30:34.486Z,52.08
2023-04-22T20:33:01.360Z,54.78
2023-04-22T20:35:28.519Z,52.15
2023-04-22T20:37:59.298Z,46.53
2023-04-22T20:40:27.147Z,58.65
2023-04-22T20:42:57.136Z,56.65
2023-04-22T20:45:24.719Z,51.05
2023-04-22T20:47:52.010Z,48.67
2023-04-22T20:50:19.010Z,49.20
2023-04-22T20:52:45.673Z,46.72
2023-04-22T20:55:12.560Z,50.13
2023-04-22T20:57:39.387Z,47.72
2023-04-22T21:00:07.314Z,49.17
2023-04-22T21:02:35.293Z,49.45
2023-04-22T21:05:03.864Z,49.42
2023-04-22T21:07:30.934Z,61.28
2023-04-22T21:09:58.383Z,57.53
2023-04-22T21:12:25.743Z,58.22
2023-04-22T21:14:52.776Z,60.90
2023-04-22T21:17:22.765Z,55.47
2023-04-22T21:19:50.742Z,57.80
2023-04-22T21:22:21.105Z,62.75
2023-04-22T21:24:52.090Z,56.80
2023-04-22T21:27:22.082Z,46.15
2023-04-22T21:29:49.647Z,57.13
2023-04-22T21:32:17.439Z,59.10
2023-04-22T21:34:44.907Z,59.03
2023-04-22T21:37:12.641Z,67.28
2023-04-22T21:39:40.393Z,64.60
2023-04-22T21:42:09.834Z,66.30
2023-04-22T21:44:37.766Z,71.68
2023-04-22T21:47:05.486Z,75.72
2023-04-22T21:49:32.214Z,80.18
2023-04-22T21:51:59.113Z,76.22
2023-04-22T21:54:25.807Z,82.15
2023-04-22T21:56:52.547Z,79.60
2023-04-22T21:59:19.283Z,80.40
2023-04-22T22:01:45.978Z,79.03
2023-04-22T22:04:15.382Z,85.55
2023-04-22T22:06:43.361Z,89.70
2023-04-22T22:09:11.569Z,89.93
2023-04-22T22:11:38.374Z,95.47
2023-04-22T22:14:05.148Z,86.25
2023-04-22T22:16:31.956Z,93.68
2023-04-22T22:18:58.735Z,101.47
2023-04-22T22:21:25.385Z,94.03
2023-04-22T22:23:52.207Z,104.63
2023-04-22T22:26:19.260Z,102.32
2023-04-22T22:28:45.934Z,91.88
2023-04-22T22:31:12.662Z,88.50
2023-04-22T22:33:39.338Z,101.57
2023-04-22T22:36:06.408Z,108.78
2023-04-22T22:38:33.124Z,103.10
2023-04-22T22:40:59.806Z,113.43
2023-04-22T22:43:26.855Z,108.53
2023-04-22T22:45:53.591Z,111.53
2023-04-22T22:48:20.388Z,102.65
2023-04-22T22:50:47.134Z,93.03
2023-04-22T22:53:13.938Z,98.53
2023-04-22T22:55:40.707Z,111.20
2023-04-22T22:58:07.353Z,103.78
2023-04-22T23:00:34.019Z,103.72
2023-04-22T23:03:00.891Z,106.13
2023-04-22T23:05:27.910Z,104.70
2023-04-22T23:07:54.501Z,102.95
2023-04-22T23:10:21.300Z,100.68
2023-04-22T23:12:48.021Z,92.93
2023-04-22T23:15:14.612Z,102.30
2023-04-22T23:17:41.505Z,102.05
2023-04-22T23:20:11.969Z,116.53
2023-04-22T23:22:42.565Z,112.05
2023-04-22T23:25:10.158Z,103.93
2023-04-22T23:27:37.155Z,104.75
2023-04-22T23:30:04.729Z,100.65
2023-04-22T23:32:33.032Z,95.15
2023-04-22T23:35:01.718Z,98.03
2023-04-22T23:37:29.486Z,111.03
2023-04-22T23:39:56.304Z,108.43
2023-04-22T23:42:23.059Z,111.65
2023-04-22T23:44:49.841Z,98.72
2023-04-22T23:47:16.948Z,108.72
2023-04-22T23:49:43.859Z,96.07
2023-04-22T23:52:12.684Z,91.68
2023-04-22T23:54:40.265Z,106.80
2023-04-22T23:57:07.455Z,110.65
2023-04-22T23:59:34.335Z,96.60
